createdAt,value
2018-07-14T00:00:36.330Z,0
2018-07-14T00:01:44.967Z,0
2018-07-14T00:02:53.884Z,0
2018-07-14T00:04:02.803Z,0
2018-07-14T00:05:11.450Z,0
2018-07-14T00:06:20.345Z,0
2018-07-14T00:07:28.993Z,0
2018-07-14T00:08:37.647Z,0
2018-07-14T00:09:46.299Z,0
2018-07-14T00:10:54.947Z,0
2018-07-14T00:12:03.588Z,0
2018-07-14T00:13:12.238Z,0
2018-07-14T00:14:20.882Z,0
2018-07-14T00:15:29.535Z,0
2018-07-14T00:16:38.177Z,0
2018-07-14T00:17:47.086Z,0
2018-07-14T00:18:55.733Z,0
2018-07-14T00:20:04.669Z,0
2018-07-14T00:21:13.311Z,0
2018-07-14T00:22:21.961Z,0
2018-07-14T00:23:30.875Z,0
2018-07-14T00:24:39.522Z,0
2018-07-14T00:25:48.167Z,0
2018-07-14T00:26:56.812Z,0
2018-07-14T00:28:05.981Z,0
2018-07-14T00:29:14.623Z,0
2018-07-14T00:30:23.276Z,0
2018-07-14T00:31:31.925Z,0
2018-07-14T00:32:40.568Z,0
2018-07-14T00:33:49.477Z,0
2018-07-14T00:34:58.128Z,0
2018-07-14T00:36:06.775Z,0
2018-07-14T00:37:15.421Z,0
2018-07-14T00:38:24.061Z,0
2018-07-14T00:39:32.717Z,0
2018-07-14T00:40:41.362Z,0
2018-07-14T00:41:50.009Z,0
2018-07-14T00:42:58.651Z,0
2018-07-14T00:44:07.298Z,0
2018-07-14T00:45:15.946Z,0
2018-07-14T00:46:24.594Z,0
2018-07-14T00:47:33.241Z,0
2018-07-14T00:48:42.142Z,0
2018-07-14T00:49:50.790Z,0
2018-07-14T00:50:59.435Z,0
2018-07-14T00:52:08.088Z,0
2018-07-14T00:53:16.726Z,0
2018-07-14T00:54:25.382Z,0
2018-07-14T00:55:34.019Z,0
2018-07-14T00:56:42.670Z,0
2018-07-14T00:57:51.307Z,0
2018-07-14T00:58:59.954Z,0
2018-07-14T01:00:08.877Z,0
2018-07-14T01:01:17.526Z,0
2018-07-14T01:02:26.433Z,0
2018-07-14T01:03:35.079Z,0
2018-07-14T01:04:43.980Z,0
2018-07-14T01:05:52.622Z,0
2018-07-14T01:07:01.274Z,0
2018-07-14T01:08:09.919Z,0
2018-07-14T01:09:18.565Z,0
2018-07-14T01:10:27.206Z,0
2018-07-14T01:11:35.852Z,0
2018-07-14T01:12:44.760Z,0
2018-07-14T01:13:53.662Z,0
2018-07-14T01:15:02.313Z,0
2018-07-14T01:16:10.954Z,0
2018-07-14T01:17:19.606Z,0
2018-07-14T01:18:28.249Z,0
2018-07-14T01:19:36.900Z,0
2018-07-14T01:20:45.810Z,0
2018-07-14T01:21:54.456Z,0
2018-07-14T01:23:03.102Z,0
2018-07-14T01:24:11.744Z,0
2018-07-14T01:25:20.392Z,0
2018-07-14T01:26:29.044Z,0
2018-07-14T01:27:37.954Z,0
2018-07-14T01:28:46.597Z,0
2018-07-14T01:29:55.249Z,0
2018-07-14T01:31:03.901Z,0
2018-07-14T01:32:13.081Z,0
2018-07-14T01:33:21.723Z,0
2018-07-14T01:34:30.376Z,0
2018-07-14T01:35:39.017Z,0
2018-07-14T01:36:47.663Z,0
2018-07-14T01:37:56.305Z,0
2018-07-14T01:39:04.952Z,0
2018-07-14T01:40:13.597Z,0
2018-07-14T01:41:22.506Z,0
2018-07-14T01:42:31.153Z,0
2018-07-14T01:43:39.798Z,0
2018-07-14T01:44:48.443Z,0
2018-07-14T01:45:57.088Z,0
2018-07-14T01:47:05.739Z,0
2018-07-14T01:48:14.380Z,0
2018-07-14T01:49:23.288Z,0
2018-07-14T01:50:32.198Z,0
2018-07-14T01:51:40.847Z,0
2018-07-14T01:52:49.486Z,0
2018-07-14T01:53:58.133Z,0
2018-07-14T01:55:06.776Z,0
2018-07-14T01:56:15.432Z,0
2018-07-14T01:57:24.068Z,0
2018-07-14T01:58:32.973Z,0
2018-07-14T01:59:41.615Z,0
2018-07-14T02:00:50.523Z,0
2018-07-14T02:01:59.174Z,0
2018-07-14T02:03:07.817Z,0
2018-07-14T02:04:16.461Z,0
2018-07-14T02:05:25.367Z,0
2018-07-14T02:06:34.017Z,0
2018-07-14T02:07:42.664Z,0
2018-07-14T02:08:51.307Z,0
2018-07-14T02:09:59.946Z,0
2018-07-14T02:11:08.603Z,0
2018-07-14T02:12:17.244Z,0
2018-07-14T02:13:25.892Z,0
2018-07-14T02:14:34.530Z,0
2018-07-14T02:15:43.174Z,0
2018-07-14T02:16:51.825Z,0
2018-07-14T02:18:00.472Z,0
2018-07-14T02:19:09.123Z,0
2018-07-14T02:20:18.021Z,0
2018-07-14T02:21:26.679Z,0
2018-07-14T02:22:35.311Z,0
2018-07-14T02:23:43.966Z,0
2018-07-14T02:24:52.599Z,0
2018-07-14T02:26:01.251Z,0
2018-07-14T02:27:10.421Z,0
2018-07-14T02:28:19.074Z,0
2018-07-14T02:29:27.710Z,0
2018-07-14T02:30:36.635Z,0
2018-07-14T02:31:45.550Z,0
2018-07-14T02:32:54.207Z,0
2018-07-14T02:34:03.119Z,0
2018-07-14T02:35:12.299Z,0
2018-07-14T02:36:21.203Z,0
2018-07-14T02:37:30.122Z,0
2018-07-14T02:38:38.777Z,0
2018-07-14T02:39:47.691Z,0
2018-07-14T02:40:56.346Z,0
2018-07-14T02:42:05.513Z,0
2018-07-14T02:43:14.709Z,0
2018-07-14T02:44:23.356Z,0
2018-07-14T02:45:32.005Z,0
2018-07-14T02:46:40.908Z,0
2018-07-14T02:47:49.561Z,0
2018-07-14T02:48:58.208Z,0
2018-07-14T02:50:06.859Z,0
2018-07-14T02:51:15.497Z,0
2018-07-14T02:52:24.416Z,0
2018-07-14T02:53:33.607Z,0
2018-07-14T02:54:42.257Z,0
2018-07-14T02:55:51.162Z,0
2018-07-14T02:56:59.805Z,0
2018-07-14T02:58:08.716Z,0
2018-07-14T02:59:17.359Z,0
2018-07-14T03:00:26.292Z,0
2018-07-14T03:01:35.187Z,0
2018-07-14T03:02:44.113Z,0
2018-07-14T03:03:53.018Z,0
2018-07-14T03:05:01.677Z,0
2018-07-14T03:06:10.576Z,0
2018-07-14T03:07:19.228Z,0
2018-07-14T03:08:27.880Z,0
2018-07-14T03:09:36.532Z,0
2018-07-14T03:10:45.454Z,0
2018-07-14T03:11:54.365Z,0
2018-07-14T03:13:03.510Z,0
2018-07-14T03:14:12.717Z,0
2018-07-14T03:15:21.725Z,0
2018-07-14T03:16:30.568Z,0
2018-07-14T03:17:39.576Z,0
2018-07-14T03:18:48.997Z,0
2018-07-14T03:19:57.841Z,0
2018-07-14T03:21:06.633Z,5
2018-07-14T03:22:15.635Z,5
2018-07-14T03:23:24.283Z,5
2018-07-14T03:24:32.935Z,5
2018-07-14T03:25:41.577Z,5
2018-07-14T03:26:50.224Z,5
2018-07-14T03:27:58.863Z,5
2018-07-14T03:29:07.512Z,5
2018-07-14T03:30:16.165Z,5
2018-07-14T03:31:25.079Z,5
2018-07-14T03:32:34.251Z,10
2018-07-14T03:33:43.153Z,10
2018-07-14T03:34:51.797Z,10
2018-07-14T03:36:00.440Z,10
2018-07-14T03:37:09.352Z,10
2018-07-14T03:38:17.995Z,10
2018-07-14T03:39:26.638Z,15
2018-07-14T03:40:35.281Z,15
2018-07-14T03:41:44.198Z,15
2018-07-14T03:42:52.835Z,15
2018-07-14T03:44:01.485Z,20
2018-07-14T03:45:10.130Z,20
2018-07-14T03:46:19.040Z,25
2018-07-14T03:47:27.682Z,25
2018-07-14T03:48:36.326Z,25
2018-07-14T03:49:44.969Z,25
2018-07-14T03:50:53.610Z,25
2018-07-14T03:52:02.263Z,25
2018-07-14T03:53:10.900Z,25
2018-07-14T03:54:19.544Z,25
2018-07-14T03:55:28.181Z,25
2018-07-14T03:56:36.841Z,25
2018-07-14T03:57:45.479Z,20
2018-07-14T03:58:54.123Z,15
2018-07-14T04:00:02.763Z,15
2018-07-14T04:01:11.677Z,15
2018-07-14T04:02:20.320Z,20
2018-07-14T04:03:28.972Z,20
2018-07-14T04:04:37.612Z,20
2018-07-14T04:05:46.260Z,20
2018-07-14T04:06:55.178Z,25
2018-07-14T04:08:03.826Z,25
2018-07-14T04:09:12.475Z,30
2018-07-14T04:10:21.110Z,35
2018-07-14T04:11:29.757Z,35
2018-07-14T04:12:38.398Z,40
2018-07-14T04:13:47.052Z,45
2018-07-14T04:14:55.688Z,45
2018-07-14T04:16:04.607Z,50
2018-07-14T04:17:13.250Z,50
2018-07-14T04:18:21.903Z,55
2018-07-14T04:19:30.537Z,55
2018-07-14T04:20:39.447Z,55
2018-07-14T04:21:48.095Z,60
2018-07-14T04:22:57.018Z,65
2018-07-14T04:24:05.660Z,60
2018-07-14T04:25:14.298Z,60
2018-07-14T04:26:22.941Z,65
2018-07-14T04:27:31.584Z,65
2018-07-14T04:28:40.237Z,70
2018-07-14T04:29:48.877Z,70
2018-07-14T04:30:57.526Z,75
2018-07-14T04:32:06.214Z,80
2018-07-14T04:33:14.812Z,85
2018-07-14T04:34:23.457Z,85
2018-07-14T04:35:32.107Z,90
2018-07-14T04:36:40.744Z,95
2018-07-14T04:37:49.398Z,95
2018-07-14T04:38:58.040Z,100
2018-07-14T04:40:06.686Z,100
2018-07-14T04:41:15.590Z,100
2018-07-14T04:42:24.278Z,100
2018-07-14T04:43:32.889Z,100
2018-07-14T04:44:41.558Z,100
2018-07-14T04:45:50.184Z,100
2018-07-14T04:46:58.820Z,105
2018-07-14T04:48:07.470Z,105
2018-07-14T04:49:16.112Z,110
2018-07-14T04:50:24.767Z,115
2018-07-14T04:51:33.664Z,120
2018-07-14T04:52:42.577Z,115
2018-07-14T04:53:51.494Z,115
2018-07-14T04:55:00.146Z,115
2018-07-14T04:56:09.045Z,110
2018-07-14T04:57:17.693Z,110
2018-07-14T04:58:26.599Z,110
2018-07-14T04:59:35.516Z,110
2018-07-14T05:00:44.161Z,110
2018-07-14T05:01:53.062Z,125
2018-07-14T05:03:01.710Z,130
2018-07-14T05:04:10.614Z,135
2018-07-14T05:05:19.271Z,140
2018-07-14T05:06:27.973Z,145
2018-07-14T05:07:36.556Z,145
2018-07-14T05:08:45.214Z,145
2018-07-14T05:09:53.850Z,135
2018-07-14T05:11:02.501Z,130
2018-07-14T05:12:11.401Z,135
2018-07-14T05:13:20.057Z,135
2018-07-14T05:14:28.692Z,130
2018-07-14T05:15:37.341Z,130
2018-07-14T05:16:46.519Z,130
2018-07-14T05:17:55.175Z,130
2018-07-14T05:19:03.820Z,130
2018-07-14T05:20:12.464Z,140
2018-07-14T05:21:21.134Z,145
2018-07-14T05:22:29.758Z,145
2018-07-14T05:23:38.413Z,150
2018-07-14T05:24:47.319Z,150
2018-07-14T05:25:55.969Z,155
2018-07-14T05:27:04.867Z,150
2018-07-14T05:28:13.524Z,155
2018-07-14T05:29:22.165Z,155
2018-07-14T05:30:30.816Z,155
2018-07-14T05:31:39.455Z,160
2018-07-14T05:32:48.121Z,160
2018-07-14T05:33:56.766Z,165
2018-07-14T05:35:05.413Z,165
2018-07-14T05:36:14.049Z,170
2018-07-14T05:37:22.700Z,170
2018-07-14T05:38:31.351Z,170
2018-07-14T05:39:39.999Z,175
2018-07-14T05:40:48.648Z,175
2018-07-14T05:41:57.286Z,175
2018-07-14T05:43:05.939Z,175
2018-07-14T05:44:14.576Z,185
2018-07-14T05:45:23.500Z,185
2018-07-14T05:46:32.400Z,180
2018-07-14T05:47:41.051Z,180
2018-07-14T05:48:49.694Z,180
2018-07-14T05:49:58.350Z,180
2018-07-14T05:51:07.509Z,185
2018-07-14T05:52:16.157Z,185
2018-07-14T05:53:24.804Z,190
2018-07-14T05:54:33.718Z,190
2018-07-14T05:55:42.365Z,190
2018-07-14T05:56:51.005Z,200
2018-07-14T05:57:59.649Z,205
2018-07-14T05:59:08.292Z,215
2018-07-14T06:00:16.948Z,230
2018-07-14T06:01:25.591Z,250
2018-07-14T06:02:34.243Z,255
2018-07-14T06:03:43.148Z,270
2018-07-14T06:04:51.805Z,270
2018-07-14T06:06:00.453Z,270
2018-07-14T06:07:09.100Z,260
2018-07-14T06:08:17.740Z,260
2018-07-14T06:09:26.659Z,250
2018-07-14T06:10:35.308Z,250
2018-07-14T06:11:43.957Z,235
2018-07-14T06:12:52.599Z,225
2018-07-14T06:14:01.511Z,230
2018-07-14T06:15:10.161Z,225
2018-07-14T06:16:18.809Z,235
2018-07-14T06:17:27.459Z,230
2018-07-14T06:18:36.105Z,245
2018-07-14T06:19:45.133Z,220
2018-07-14T06:20:53.780Z,210
2018-07-14T06:22:02.434Z,210
2018-07-14T06:23:11.082Z,200
2018-07-14T06:24:20.002Z,190
2018-07-14T06:25:28.647Z,190
2018-07-14T06:26:37.567Z,215
2018-07-14T06:27:46.209Z,195
2018-07-14T06:28:54.861Z,195
2018-07-14T06:30:03.507Z,205
2018-07-14T06:31:12.166Z,190
2018-07-14T06:32:21.075Z,200
2018-07-14T06:33:29.722Z,205
2018-07-14T06:34:38.372Z,205
2018-07-14T06:35:47.016Z,205
2018-07-14T06:36:55.672Z,205
2018-07-14T06:38:04.582Z,205
2018-07-14T06:39:13.230Z,205
2018-07-14T06:40:22.142Z,210
2018-07-14T06:41:30.793Z,205
2018-07-14T06:42:39.766Z,205
2018-07-14T06:43:48.411Z,210
2018-07-14T06:44:57.056Z,210
2018-07-14T06:46:05.708Z,220
2018-07-14T06:47:14.411Z,215
2018-07-14T06:48:23.003Z,220
2018-07-14T06:49:31.643Z,225
2018-07-14T06:50:40.293Z,220
2018-07-14T06:51:48.938Z,220
2018-07-14T06:52:57.589Z,225
2018-07-14T06:54:06.769Z,225
2018-07-14T06:55:15.412Z,225
2018-07-14T06:56:24.335Z,225
2018-07-14T06:57:32.983Z,220
2018-07-14T06:58:41.635Z,210
2018-07-14T06:59:50.280Z,210
2018-07-14T07:00:58.929Z,210
2018-07-14T07:02:07.578Z,210
2018-07-14T07:03:16.816Z,210
2018-07-14T07:04:25.415Z,215
2018-07-14T07:05:34.060Z,215
2018-07-14T07:06:42.984Z,210
2018-07-14T07:07:51.620Z,215
2018-07-14T07:09:00.274Z,220
2018-07-14T07:10:08.925Z,220
2018-07-14T07:11:17.887Z,215
2018-07-14T07:12:26.538Z,215
2018-07-14T07:13:35.220Z,215
2018-07-14T07:14:43.829Z,215
2018-07-14T07:15:52.474Z,220
2018-07-14T07:17:01.394Z,220
2018-07-14T07:18:10.033Z,220
2018-07-14T07:19:18.687Z,225
2018-07-14T07:20:27.328Z,200
2018-07-14T07:21:35.988Z,220
2018-07-14T07:22:44.890Z,220
2018-07-14T07:23:53.541Z,220
2018-07-14T07:25:02.448Z,225
2018-07-14T07:26:11.108Z,225
2018-07-14T07:27:19.750Z,235
2018-07-14T07:28:28.396Z,240
2018-07-14T07:29:37.303Z,245
2018-07-14T07:30:45.950Z,235
2018-07-14T07:31:54.608Z,240
2018-07-14T07:33:03.252Z,235
2018-07-14T07:34:12.199Z,245
2018-07-14T07:35:20.840Z,250
2018-07-14T07:36:29.503Z,255
2018-07-14T07:37:38.147Z,265
2018-07-14T07:38:46.799Z,270
2018-07-14T07:39:55.439Z,260
2018-07-14T07:41:04.094Z,235
2018-07-14T07:42:12.813Z,235
2018-07-14T07:43:21.401Z,280
2018-07-14T07:44:30.034Z,290
2018-07-14T07:45:38.683Z,295
2018-07-14T07:46:47.338Z,290
2018-07-14T07:47:55.987Z,295
2018-07-14T07:49:04.638Z,300
2018-07-14T07:50:13.277Z,295
2018-07-14T07:51:21.931Z,275
2018-07-14T07:52:30.573Z,270
2018-07-14T07:53:39.238Z,265
2018-07-14T07:54:47.876Z,260
2018-07-14T07:55:56.528Z,255
2018-07-14T07:57:05.172Z,245
2018-07-14T07:58:13.828Z,205
2018-07-14T07:59:22.471Z,215
2018-07-14T08:00:31.119Z,200
2018-07-14T08:01:39.764Z,240
2018-07-14T08:02:48.683Z,240
2018-07-14T08:03:57.323Z,200
2018-07-14T08:05:05.968Z,205
2018-07-14T08:06:14.627Z,230
2018-07-14T08:07:23.274Z,210
2018-07-14T08:08:31.960Z,235
2018-07-14T08:09:40.579Z,245
2018-07-14T08:10:49.228Z,240
2018-07-14T08:11:57.871Z,240
2018-07-14T08:13:06.524Z,235
2018-07-14T08:14:15.174Z,235
2018-07-14T08:15:23.822Z,235
2018-07-14T08:16:32.465Z,235
2018-07-14T08:17:41.123Z,230
2018-07-14T08:18:49.770Z,230
2018-07-14T08:19:58.423Z,230
2018-07-14T08:21:07.065Z,230
2018-07-14T08:22:15.989Z,230
2018-07-14T08:23:24.640Z,230
2018-07-14T08:24:33.291Z,235
2018-07-14T08:25:41.950Z,250
2018-07-14T08:26:50.594Z,240
2018-07-14T08:27:59.243Z,225
2018-07-14T08:29:07.893Z,230
2018-07-14T08:30:16.813Z,225
2018-07-14T08:31:25.718Z,230
2018-07-14T08:32:34.369Z,235
2018-07-14T08:33:43.281Z,250
2018-07-14T08:34:51.931Z,255
2018-07-14T08:36:00.576Z,250
2018-07-14T08:37:09.226Z,240
2018-07-14T08:38:17.873Z,240
2018-07-14T08:39:26.528Z,245
2018-07-14T08:40:35.173Z,245
2018-07-14T08:41:44.083Z,260
2018-07-14T08:42:52.998Z,265
2018-07-14T08:44:01.644Z,275
2018-07-14T08:45:10.297Z,265
2018-07-14T08:46:18.948Z,255
2018-07-14T08:47:27.596Z,235
2018-07-14T08:48:36.240Z,230
2018-07-14T08:49:44.897Z,250
2018-07-14T08:50:53.546Z,265
2018-07-14T08:52:02.196Z,270
2018-07-14T08:53:10.842Z,265
2018-07-14T08:54:19.497Z,250
2018-07-14T08:55:28.399Z,260
2018-07-14T08:56:37.052Z,245
2018-07-14T08:57:45.694Z,240
2018-07-14T08:58:54.617Z,235
2018-07-14T09:00:03.270Z,230
2018-07-14T09:01:12.184Z,225
2018-07-14T09:02:20.832Z,225
2018-07-14T09:03:29.552Z,220
2018-07-14T09:04:38.140Z,220
2018-07-14T09:05:46.788Z,215
2018-07-14T09:06:55.435Z,210
2018-07-14T09:08:04.092Z,190
2018-07-14T09:09:12.737Z,210
2018-07-14T09:10:21.386Z,190
2018-07-14T09:11:30.030Z,210
2018-07-14T09:12:38.686Z,210
2018-07-14T09:13:47.333Z,215
2018-07-14T09:14:55.986Z,215
2018-07-14T09:16:04.630Z,210
2018-07-14T09:17:13.288Z,210
2018-07-14T09:18:22.199Z,215
2018-07-14T09:19:30.853Z,215
2018-07-14T09:20:39.768Z,225
2018-07-14T09:21:48.414Z,235
2018-07-14T09:22:57.064Z,230
2018-07-14T09:24:05.715Z,215
2018-07-14T09:25:14.381Z,210
2018-07-14T09:26:23.018Z,210
2018-07-14T09:27:31.671Z,215
2018-07-14T09:28:40.316Z,220
2018-07-14T09:29:48.971Z,220
2018-07-14T09:30:57.618Z,220
2018-07-14T09:32:06.270Z,230
2018-07-14T09:33:14.917Z,230
2018-07-14T09:34:23.573Z,230
2018-07-14T09:35:32.222Z,235
2018-07-14T09:36:40.875Z,245
2018-07-14T09:37:49.552Z,250
2018-07-14T09:38:58.167Z,225
2018-07-14T09:40:06.820Z,245
2018-07-14T09:41:15.468Z,275
2018-07-14T09:42:24.117Z,290
2018-07-14T09:43:32.765Z,290
2018-07-14T09:44:41.483Z,285
2018-07-14T09:45:50.336Z,260
2018-07-14T09:46:58.987Z,265
2018-07-14T09:48:07.631Z,240
2018-07-14T09:49:16.289Z,255
2018-07-14T09:50:24.942Z,280
2018-07-14T09:51:33.855Z,270
2018-07-14T09:52:42.503Z,225
2018-07-14T09:53:51.154Z,220
2018-07-14T09:55:00.073Z,230
2018-07-14T09:56:08.741Z,230
2018-07-14T09:57:17.651Z,230
2018-07-14T09:58:26.286Z,230
2018-07-14T09:59:34.943Z,220
2018-07-14T10:00:43.853Z,215
2018-07-14T10:01:52.772Z,225
2018-07-14T10:03:01.419Z,250
2018-07-14T10:04:10.072Z,280
2018-07-14T10:05:18.718Z,250
2018-07-14T10:06:27.378Z,270
2018-07-14T10:07:36.289Z,290
2018-07-14T10:08:45.208Z,290
2018-07-14T10:09:53.862Z,225
2018-07-14T10:11:02.516Z,215
2018-07-14T10:12:11.438Z,225
2018-07-14T10:13:20.147Z,315
2018-07-14T10:14:28.732Z,285
2018-07-14T10:15:37.380Z,265
2018-07-14T10:16:46.041Z,250
2018-07-14T10:17:54.687Z,240
2018-07-14T10:19:03.341Z,225
2018-07-14T10:20:11.985Z,220
2018-07-14T10:21:20.644Z,210
2018-07-14T10:22:29.292Z,210
2018-07-14T10:23:37.951Z,245
2018-07-14T10:24:46.592Z,270
2018-07-14T10:25:55.866Z,260
2018-07-14T10:27:04.491Z,260
2018-07-14T10:28:13.144Z,275
2018-07-14T10:29:21.793Z,285
2018-07-14T10:30:30.442Z,295
2018-07-14T10:31:39.098Z,315
2018-07-14T10:32:47.752Z,340
2018-07-14T10:33:56.760Z,350
2018-07-14T10:35:05.669Z,375
2018-07-14T10:36:14.586Z,390
2018-07-14T10:37:23.232Z,355
2018-07-14T10:38:31.946Z,340
2018-07-14T10:39:40.535Z,320
2018-07-14T10:40:49.196Z,250
2018-07-14T10:41:57.856Z,235
2018-07-14T10:43:06.502Z,235
2018-07-14T10:44:15.415Z,230
2018-07-14T10:45:24.329Z,220
2018-07-14T10:46:32.982Z,215
2018-07-14T10:47:41.640Z,210
2018-07-14T10:48:50.551Z,195
2018-07-14T10:49:59.202Z,185
2018-07-14T10:51:07.845Z,170
2018-07-14T10:52:16.497Z,165
2018-07-14T10:53:25.425Z,205
2018-07-14T10:54:34.074Z,185
2018-07-14T10:55:42.732Z,185
2018-07-14T10:56:51.373Z,225
2018-07-14T10:58:00.070Z,275
2018-07-14T10:59:08.986Z,260
2018-07-14T11:00:17.898Z,260
2018-07-14T11:01:26.547Z,260
2018-07-14T11:02:35.205Z,260
2018-07-14T11:03:43.853Z,260
2018-07-14T11:04:52.508Z,265
2018-07-14T11:06:01.155Z,260
2018-07-14T11:07:09.819Z,265
2018-07-14T11:08:18.469Z,265
2018-07-14T11:09:27.119Z,275
2018-07-14T11:10:36.033Z,270
2018-07-14T11:11:44.681Z,270
2018-07-14T11:12:53.332Z,265
2018-07-14T11:14:01.985Z,265
2018-07-14T11:15:10.638Z,275
2018-07-14T11:16:19.299Z,295
2018-07-14T11:17:28.214Z,300
2018-07-14T11:18:36.866Z,295
2018-07-14T11:19:45.787Z,300
2018-07-14T11:20:54.437Z,320
2018-07-14T11:22:03.090Z,335
2018-07-14T11:23:11.740Z,330
2018-07-14T11:24:20.397Z,315
2018-07-14T11:25:29.045Z,315
2018-07-14T11:26:37.968Z,310
2018-07-14T11:27:46.618Z,235
2018-07-14T11:28:55.263Z,250
2018-07-14T11:30:03.918Z,200
2018-07-14T11:31:12.573Z,190
2018-07-14T11:32:21.225Z,190
2018-07-14T11:33:29.872Z,220
2018-07-14T11:34:38.923Z,170
2018-07-14T11:35:47.538Z,170
2018-07-14T11:36:56.192Z,175
2018-07-14T11:38:04.839Z,245
2018-07-14T11:39:13.780Z,185
2018-07-14T11:40:22.430Z,160
2018-07-14T11:41:31.348Z,185
2018-07-14T11:42:39.996Z,170
2018-07-14T11:43:48.654Z,270
2018-07-14T11:44:57.570Z,265
2018-07-14T11:46:06.223Z,305
2018-07-14T11:47:14.876Z,250
2018-07-14T11:48:23.524Z,290
2018-07-14T11:49:32.176Z,305
2018-07-14T11:50:41.086Z,310
2018-07-14T11:51:49.743Z,205
2018-07-14T11:52:58.391Z,175
2018-07-14T11:54:07.072Z,185
2018-07-14T11:55:15.694Z,175
2018-07-14T11:56:24.618Z,195
2018-07-14T11:57:33.525Z,205
2018-07-14T11:58:42.450Z,250
2018-07-14T11:59:51.100Z,325
2018-07-14T12:01:00.035Z,320
2018-07-14T12:02:09.033Z,315
2018-07-14T12:03:17.888Z,310
2018-07-14T12:04:26.513Z,295
2018-07-14T12:05:35.162Z,280
2018-07-14T12:06:43.822Z,300
2018-07-14T12:07:52.470Z,320
2018-07-14T12:09:01.127Z,315
2018-07-14T12:10:09.770Z,310
2018-07-14T12:11:18.432Z,310
2018-07-14T12:12:27.078Z,305
2018-07-14T12:13:35.737Z,305
2018-07-14T12:14:44.377Z,305
2018-07-14T12:15:53.040Z,285
2018-07-14T12:17:01.692Z,220
2018-07-14T12:18:10.613Z,290
2018-07-14T12:19:19.255Z,300
2018-07-14T12:20:28.178Z,230
2018-07-14T12:21:36.835Z,220
2018-07-14T12:22:45.493Z,200
2018-07-14T12:23:54.145Z,270
2018-07-14T12:25:02.788Z,225
2018-07-14T12:26:11.446Z,205
2018-07-14T12:27:20.094Z,300
2018-07-14T12:28:29.042Z,300
2018-07-14T12:29:37.692Z,285
2018-07-14T12:30:46.323Z,285
2018-07-14T12:31:54.971Z,265
2018-07-14T12:33:03.633Z,255
2018-07-14T12:34:12.278Z,170
2018-07-14T12:35:21.193Z,145
2018-07-14T12:36:29.863Z,225
2018-07-14T12:37:38.505Z,240
2018-07-14T12:38:47.154Z,235
2018-07-14T12:39:55.800Z,235
2018-07-14T12:41:04.451Z,235
2018-07-14T12:42:13.101Z,235
2018-07-14T12:43:21.780Z,240
2018-07-14T12:44:30.408Z,240
2018-07-14T12:45:39.065Z,245
2018-07-14T12:46:47.708Z,255
2018-07-14T12:47:56.368Z,265
2018-07-14T12:49:05.020Z,275
2018-07-14T12:50:13.681Z,280
2018-07-14T12:51:22.320Z,285
2018-07-14T12:52:30.981Z,300
2018-07-14T12:53:39.900Z,285
2018-07-14T12:54:48.549Z,280
2018-07-14T12:55:57.212Z,280
2018-07-14T12:57:05.863Z,275
2018-07-14T12:58:15.037Z,265
2018-07-14T12:59:23.952Z,260
2018-07-14T13:00:32.599Z,260
2018-07-14T13:01:41.261Z,265
2018-07-14T13:02:49.908Z,265
2018-07-14T13:03:58.835Z,265
2018-07-14T13:05:08.013Z,275
2018-07-14T13:06:16.935Z,290
2018-07-14T13:07:25.846Z,305
2018-07-14T13:08:34.504Z,300
2018-07-14T13:09:43.145Z,275
2018-07-14T13:10:52.072Z,255
2018-07-14T13:12:00.724Z,230
2018-07-14T13:13:09.646Z,230
2018-07-14T13:14:18.284Z,230
2018-07-14T13:15:26.939Z,225
2018-07-14T13:16:35.865Z,230
2018-07-14T13:17:44.519Z,235
2018-07-14T13:18:53.174Z,230
2018-07-14T13:20:01.820Z,225
2018-07-14T13:21:10.487Z,225
2018-07-14T13:22:19.135Z,230
2018-07-14T13:23:27.796Z,240
2018-07-14T13:24:36.705Z,240
2018-07-14T13:25:45.364Z,245
2018-07-14T13:26:54.012Z,260
2018-07-14T13:28:02.676Z,270
2018-07-14T13:29:11.620Z,285
2018-07-14T13:30:20.610Z,280
2018-07-14T13:31:29.260Z,255
2018-07-14T13:32:37.917Z,250
2018-07-14T13:33:46.568Z,240
2018-07-14T13:34:55.216Z,240
2018-07-14T13:36:03.866Z,235
2018-07-14T13:37:12.780Z,165
2018-07-14T13:38:21.442Z,155
2018-07-14T13:39:30.116Z,185
2018-07-14T13:40:38.778Z,235
2018-07-14T13:41:47.420Z,230
2018-07-14T13:42:56.081Z,225
2018-07-14T13:44:04.728Z,220
2018-07-14T13:45:13.392Z,220
2018-07-14T13:46:22.041Z,225
2018-07-14T13:47:30.972Z,225
2018-07-14T13:48:39.623Z,235
2018-07-14T13:49:48.556Z,205
2018-07-14T13:50:57.203Z,235
2018-07-14T13:52:05.912Z,235
2018-07-14T13:53:14.784Z,230
2018-07-14T13:54:23.704Z,230
2018-07-14T13:55:32.357Z,230
2018-07-14T13:56:41.003Z,230
2018-07-14T13:57:49.655Z,230
2018-07-14T13:58:58.569Z,235
2018-07-14T14:00:07.230Z,235
2018-07-14T14:01:15.877Z,240
2018-07-14T14:02:24.531Z,255
2018-07-14T14:03:33.447Z,280
2018-07-14T14:04:42.104Z,305
2018-07-14T14:05:50.758Z,300
2018-07-14T14:06:59.421Z,300
2018-07-14T14:08:08.072Z,300
2018-07-14T14:09:16.733Z,300
2018-07-14T14:10:25.386Z,315
2018-07-14T14:11:34.038Z,320
2018-07-14T14:12:42.687Z,315
2018-07-14T14:13:51.338Z,290
2018-07-14T14:14:59.993Z,275
2018-07-14T14:16:08.648Z,265
2018-07-14T14:17:17.300Z,255
2018-07-14T14:18:25.950Z,245
2018-07-14T14:19:34.612Z,235
2018-07-14T14:20:43.259Z,225
2018-07-14T14:21:51.912Z,185
2018-07-14T14:23:00.561Z,160
2018-07-14T14:24:09.218Z,200
2018-07-14T14:25:17.868Z,200
2018-07-14T14:26:26.527Z,200
2018-07-14T14:27:35.178Z,205
2018-07-14T14:28:43.836Z,210
2018-07-14T14:29:52.489Z,220
2018-07-14T14:31:01.145Z,225
2018-07-14T14:32:09.802Z,225
2018-07-14T14:33:18.450Z,225
2018-07-14T14:34:27.109Z,230
2018-07-14T14:35:35.765Z,235
2018-07-14T14:36:44.424Z,240
2018-07-14T14:37:53.079Z,245
2018-07-14T14:39:01.727Z,255
2018-07-14T14:40:10.683Z,190
2018-07-14T14:41:19.339Z,190
2018-07-14T14:42:28.256Z,220
2018-07-14T14:43:36.909Z,250
2018-07-14T14:44:45.561Z,215
2018-07-14T14:45:54.219Z,250
2018-07-14T14:47:02.871Z,265
2018-07-14T14:48:11.545Z,195
2018-07-14T14:49:20.181Z,185
2018-07-14T14:50:28.834Z,235
2018-07-14T14:51:37.748Z,240
2018-07-14T14:52:46.664Z,240
2018-07-14T14:53:55.318Z,230
2018-07-14T14:55:03.967Z,225
2018-07-14T14:56:13.026Z,220
2018-07-14T14:57:21.658Z,155
2018-07-14T14:58:30.310Z,190
2018-07-14T14:59:38.984Z,225
2018-07-14T15:00:47.882Z,225
2018-07-14T15:01:56.542Z,180
2018-07-14T15:03:05.461Z,170
2018-07-14T15:04:14.105Z,190
2018-07-14T15:05:22.762Z,210
2018-07-14T15:06:31.414Z,150
2018-07-14T15:07:40.070Z,215
2018-07-14T15:08:48.726Z,220
2018-07-14T15:09:57.372Z,165
2018-07-14T15:11:06.026Z,140
2018-07-14T15:12:14.676Z,125
2018-07-14T15:13:23.339Z,120
2018-07-14T15:14:31.988Z,115
2018-07-14T15:15:40.645Z,110
2018-07-14T15:16:49.558Z,110
2018-07-14T15:17:58.216Z,160
2018-07-14T15:19:06.864Z,165
2018-07-14T15:20:15.519Z,165
2018-07-14T15:21:24.171Z,160
2018-07-14T15:22:32.827Z,160
2018-07-14T15:23:41.478Z,155
2018-07-14T15:24:50.129Z,155
2018-07-14T15:25:59.576Z,150
2018-07-14T15:27:08.228Z,150
2018-07-14T15:28:17.157Z,150
2018-07-14T15:29:25.806Z,155
2018-07-14T15:30:34.736Z,155
2018-07-14T15:31:43.643Z,155
2018-07-14T15:32:52.437Z,155
2018-07-14T15:34:00.955Z,155
2018-07-14T15:35:09.605Z,155
2018-07-14T15:36:18.255Z,170
2018-07-14T15:37:26.912Z,165
2018-07-14T15:38:35.832Z,155
2018-07-14T15:39:44.487Z,150
2018-07-14T15:40:53.148Z,150
2018-07-14T15:42:02.068Z,150
2018-07-14T15:43:10.724Z,150
2018-07-14T15:44:19.379Z,150
2018-07-14T15:45:28.029Z,155
2018-07-14T15:46:36.940Z,155
2018-07-14T15:47:45.599Z,155
2018-07-14T15:48:54.245Z,155
2018-07-14T15:50:03.164Z,160
2018-07-14T15:51:11.810Z,160
2018-07-14T15:52:20.466Z,150
2018-07-14T15:53:29.113Z,150
2018-07-14T15:54:37.776Z,145
2018-07-14T15:55:46.420Z,140
2018-07-14T15:56:55.078Z,140
2018-07-14T15:58:03.989Z,140
2018-07-14T15:59:12.655Z,140
2018-07-14T16:00:21.339Z,140
2018-07-14T16:01:29.947Z,140
2018-07-14T16:02:38.592Z,140